Time;durP1;ratioP1;P1;durP2;ratioP2;P2;SDS_P1;SDS_P2;PMS_P1;PMS_P2;Temp;Humidity;BMP_temperature;BMP_pressure;BME280_temperature;BME280_humidity;BME280_pressure;Samples;Min_cycle;Max_cycle;Signal;HPM_P1;HPM_P2
2021/01/10 00:00:20;;;;;;;38.53;23.97;;;0.60;99.90;;;;;;4829125;28;20623;-76
2021/01/10 00:02:44;;;;;;;37.10;23.30;;;0.50;99.90;;;;;;4827099;28;20666;-76
2021/01/10 00:05:08;;;;;;;39.93;24.37;;;0.60;99.90;;;;;;4844922;28;20631;-76
2021/01/10 00:07:31;;;;;;;35.07;22.10;;;0.50;99.90;;;;;;4847824;28;20683;-75
2021/01/10 00:09:54;;;;;;;36.83;22.87;;;0.60;99.90;;;;;;4844761;28;21209;-77
2021/01/10 00:12:20;;;;;;;36.67;22.83;;;0.60;99.90;;;;;;4844213;28;20218;-73
2021/01/10 00:14:42;;;;;;;38.67;23.43;;;0.60;99.90;;;;;;4846621;28;20260;-77
2021/01/10 00:17:05;;;;;;;39.87;23.97;;;0.60;99.90;;;;;;4846649;28;20198;-75
2021/01/10 00:19:27;;;;;;;40.30;24.33;;;0.60;99.90;;;;;;4842067;28;20723;-76
2021/01/10 00:21:49;;;;;;;42.30;26.13;;;0.60;99.90;;;;;;4847510;28;20648;-78
2021/01/10 00:24:12;;;;;;;47.07;28.37;;;0.50;99.90;;;;;;4811315;28;20642;-75
2021/01/10 00:26:35;;;;;;;45.83;28.67;;;0.60;99.90;;;;;;4847836;28;20186;-77
2021/01/10 00:28:57;;;;;;;41.23;25.83;;;0.60;99.90;;;;;;4846943;28;20233;-77
2021/01/10 00:31:19;;;;;;;42.37;26.73;;;0.60;99.90;;;;;;4828476;28;20191;-74
2021/01/10 00:33:41;;;;;;;45.27;27.33;;;0.60;99.90;;;;;;4843516;28;20222;-76
2021/01/10 00:36:03;;;;;;;46.10;28.43;;;0.60;99.90;;;;;;4848668;28;21239;-75
2021/01/10 00:38:25;;;;;;;41.73;26.17;;;0.50;99.90;;;;;;4848522;28;20260;-75
2021/01/10 00:40:48;;;;;;;43.63;25.33;;;0.60;1.00;;;;;;4871985;28;20619;-74
2021/01/10 00:43:10;;;;;;;42.00;23.63;;;0.60;1.00;;;;;;4842491;28;20260;-77
2021/01/10 00:45:33;;;;;;;39.13;23.27;;;0.60;99.90;;;;;;4847141;28;20206;-75
2021/01/10 00:47:56;;;;;;;43.37;24.47;;;0.60;99.90;;;;;;4855065;28;20201;-78
2021/01/10 00:50:31;;;;;;;45.40;25.27;;;0.50;99.90;;;;;;4840174;28;20667;-79
2021/01/10 00:52:53;;;;;;;44.07;26.03;;;0.50;99.90;;;;;;4854157;28;21246;-76
2021/01/10 00:55:15;;;;;;;43.43;24.87;;;0.50;99.90;;;;;;4847880;28;21337;-75
2021/01/10 00:57:39;;;;;;;47.50;25.83;;;0.50;99.90;;;;;;4848681;28;20213;-77
2021/01/10 01:00:08;;;;;;;45.33;24.87;;;0.60;99.90;;;;;;4842008;28;21145;-78
2021/01/10 01:02:36;;;;;;;48.03;26.27;;;0.50;99.90;;;;;;4846923;28;20682;-79
2021/01/10 01:04:58;;;;;;;45.47;26.30;;;0.50;99.90;;;;;;4831408;28;20621;-76
2021/01/10 01:07:20;;;;;;;47.30;28.33;;;0.50;99.90;;;;;;4828076;28;20628;-74
2021/01/10 01:09:45;;;;;;;44.77;26.57;;;0.50;99.90;;;;;;4844086;28;20222;-75
2021/01/10 01:12:08;;;;;;;45.87;27.30;;;0.50;99.90;;;;;;4845495;28;20644;-78
2021/01/10 01:14:31;;;;;;;47.30;26.13;;;0.50;99.90;;;;;;4871834;28;20619;-78
2021/01/10 01:16:53;;;;;;;47.13;26.93;;;0.50;99.90;;;;;;4848273;28;20199;-76
2021/01/10 01:19:15;;;;;;;49.10;27.03;;;0.50;99.90;;;;;;4849686;28;20187;-75
2021/01/10 01:21:37;;;;;;;45.03;26.20;;;0.50;99.90;;;;;;4846851;28;20627;-75
2021/01/10 01:23:59;;;;;;;45.37;25.63;;;0.50;99.90;;;;;;4850944;28;20655;-73
2021/01/10 01:26:23;;;;;;;44.17;25.73;;;0.50;99.90;;;;;;4854531;28;21249;-75
2021/01/10 01:28:45;;;;;;;49.33;27.53;;;0.50;99.90;;;;;;4847858;28;20612;-75
2021/01/10 01:31:08;;;;;;;48.07;28.17;;;0.50;99.90;;;;;;4849284;28;20620;-76
2021/01/10 01:33:30;;;;;;;52.60;29.80;;;0.50;99.90;;;;;;4854699;28;20620;-76
2021/01/10 01:35:52;;;;;;;54.43;30.77;;;0.50;99.90;;;;;;4845719;28;20182;-75
2021/01/10 01:38:14;;;;;;;52.80;30.43;;;0.50;99.90;;;;;;4850717;28;20252;-75
2021/01/10 01:40:36;;;;;;;47.37;27.73;;;0.50;99.90;;;;;;4857842;28;20660;-74
2021/01/10 01:42:59;;;;;;;50.93;29.07;;;0.50;99.90;;;;;;4851651;28;20645;-75
2021/01/10 01:45:21;;;;;;;51.87;27.80;;;0.50;99.90;;;;;;4849255;28;20244;-76
2021/01/10 01:47:44;;;;;;;54.97;29.13;;;0.40;99.90;;;;;;4844188;28;21263;-77
2021/01/10 01:50:08;;;;;;;64.97;30.70;;;0.50;99.90;;;;;;4855165;28;20655;-75
2021/01/10 01:52:31;;;;;;;54.97;30.00;;;0.40;1.00;;;;;;4848943;28;20604;-76
2021/01/10 01:54:53;;;;;;;58.00;30.80;;;0.50;1.00;;;;;;4848298;28;20678;-77
2021/01/10 01:57:15;;;;;;;49.93;28.90;;;0.40;1.00;;;;;;4849527;28;21161;-75
2021/01/10 01:59:37;;;;;;;50.77;29.53;;;0.50;1.00;;;;;;4853332;28;21183;-76
2021/01/10 02:01:59;;;;;;;55.60;31.83;;;0.50;1.00;;;;;;4852637;28;20187;-76
2021/01/10 02:04:27;;;;;;;63.77;34.23;;;0.40;1.00;;;;;;4847673;28;20251;-78
2021/01/10 02:06:56;;;;;;;56.13;31.67;;;0.40;1.00;;;;;;4848486;28;20673;-75
2021/01/10 02:09:20;;;;;;;53.97;30.63;;;0.50;1.00;;;;;;4855177;28;21298;-77
2021/01/10 02:11:43;;;;;;;53.53;31.40;;;0.40;1.00;;;;;;4846626;28;20722;-75
2021/01/10 02:14:07;;;;;;;57.23;33.23;;;0.40;1.00;;;;;;4848124;28;20636;-76
2021/01/10 02:16:29;;;;;;;57.33;31.57;;;0.40;1.00;;;;;;4848241;28;20666;-75
2021/01/10 02:18:51;;;;;;;55.67;32.33;;;0.40;1.00;;;;;;4852170;28;20616;-75
2021/01/10 02:21:17;;;;;;;62.00;32.10;;;0.40;1.00;;;;;;4847284;28;20245;-79
2021/01/10 02:23:41;;;;;;;55.90;31.40;;;0.30;1.00;;;;;;4854359;28;20673;-79
2021/01/10 02:26:06;;;;;;;58.20;31.93;;;0.40;1.00;;;;;;4857151;28;20620;-76
2021/01/10 02:28:30;;;;;;;58.93;33.33;;;0.30;1.00;;;;;;4848933;28;20597;-75
2021/01/10 02:30:53;;;;;;;56.07;31.37;;;0.20;1.00;;;;;;4832415;28;20214;-75
2021/01/10 02:33:22;;;;;;;55.83;32.30;;;0.10;1.00;;;;;;4847189;28;20697;-79
2021/01/10 02:35:44;;;;;;;61.93;34.97;;;-0.20;99.90;;;;;;4851618;28;20607;-74
2021/01/10 02:38:34;;;;;;;53.07;30.93;;;-0.20;99.90;;;;;;4850021;28;20217;-74
2021/01/10 02:41:07;;;;;;;58.50;31.73;;;-0.40;1.00;;;;;;4847828;28;20588;-74
2021/01/10 02:43:33;;;;;;;59.57;32.13;;;-0.60;1.00;;;;;;4847834;28;20589;-75
2021/01/10 02:46:02;;;;;;;61.20;32.17;;;-0.70;1.00;;;;;;4828629;28;20678;-76
2021/01/10 02:48:24;;;;;;;62.73;34.00;;;-0.90;1.00;;;;;;4846128;28;21223;-74
2021/01/10 02:50:47;;;;;;;62.37;33.67;;;-1.00;1.00;;;;;;4851184;28;20749;-74
2021/01/10 02:53:09;;;;;;;60.10;32.00;;;-1.10;1.00;;;;;;4849512;28;20611;-76
2021/01/10 02:55:31;;;;;;;60.00;32.67;;;-1.20;1.00;;;;;;4841924;28;20599;-76
2021/01/10 02:57:59;;;;;;;65.23;33.87;;;-1.30;1.00;;;;;;4844305;28;21022;-77
2021/01/10 03:00:24;;;;;;;65.13;33.50;;;-1.50;1.00;;;;;;4830442;28;20641;-76
2021/01/10 03:02:46;;;;;;;61.33;33.63;;;-1.70;1.00;;;;;;4846650;28;20580;-75
2021/01/10 03:05:11;;;;;;;73.87;38.37;;;-1.70;1.00;;;;;;4847367;28;20662;-74
2021/01/10 03:07:34;;;;;;;64.07;35.63;;;-1.80;1.00;;;;;;4849463;28;20619;-75
2021/01/10 03:09:56;;;;;;;66.17;35.53;;;-1.80;1.00;;;;;;4849732;28;20687;-77
2021/01/10 03:12:24;;;;;;;65.70;33.97;;;-1.80;1.00;;;;;;4847901;28;21021;-75
2021/01/10 03:14:48;;;;;;;69.07;34.30;;;-1.90;1.00;;;;;;4847298;28;20615;-75
2021/01/10 03:17:19;;;;;;;70.70;35.90;;;-1.90;1.00;;;;;;4829198;28;21358;-76
2021/01/10 03:19:41;;;;;;;68.40;34.47;;;-1.90;1.00;;;;;;4851976;28;20627;-77
2021/01/10 03:22:03;;;;;;;71.57;36.70;;;-1.90;13.00;;;;;;4847950;28;20748;-74
2021/01/10 03:24:25;;;;;;;65.97;37.03;;;-2.00;14.00;;;;;;4849177;28;20655;-77
2021/01/10 03:26:47;;;;;;;74.83;35.70;;;-2.00;19.90;;;;;;4831490;28;20691;-75
2021/01/10 03:29:09;;;;;;;66.37;34.93;;;-2.10;24.10;;;;;;4844846;28;20655;-78
2021/01/10 03:31:32;;;;;;;67.27;34.77;;;-2.20;28.10;;;;;;4849620;28;20644;-78
2021/01/10 03:33:54;;;;;;;64.77;34.20;;;-2.20;28.50;;;;;;4847953;28;21056;-79
2021/01/10 03:36:17;;;;;;;58.73;30.47;;;-2.20;30.30;;;;;;4845556;28;20623;-78
2021/01/10 03:38:39;;;;;;;59.90;31.60;;;-2.30;32.00;;;;;;4839663;28;20624;-76
2021/01/10 03:41:01;;;;;;;64.60;33.70;;;-2.40;33.30;;;;;;4845878;28;20676;-77
2021/01/10 03:43:23;;;;;;;65.80;34.60;;;-2.50;34.50;;;;;;4836264;28;20620;-75
2021/01/10 03:45:45;;;;;;;67.77;37.20;;;-2.50;38.30;;;;;;4846321;28;21189;-76
2021/01/10 03:48:09;;;;;;;79.93;41.70;;;-2.50;45.60;;;;;;4829110;28;20993;-76
2021/01/10 03:50:31;;;;;;;72.73;41.23;;;-2.50;55.80;;;;;;4846195;28;21007;-75
2021/01/10 03:52:53;;;;;;;77.57;41.10;;;-2.10;67.20;;;;;;4848458;28;20612;-75
2021/01/10 03:55:15;;;;;;;84.80;45.23;;;-2.40;77.40;;;;;;4846453;28;20624;-77
2021/01/10 03:57:38;;;;;;;87.30;45.97;;;-2.20;91.50;;;;;;4849196;28;20611;-75
2021/01/10 04:00:01;;;;;;;90.90;51.57;;;-2.30;92.00;;;;;;4848091;28;20666;-76
2021/01/10 04:02:23;;;;;;;89.47;48.30;;;-2.30;94.10;;;;;;4844942;28;20615;-75
2021/01/10 04:04:46;;;;;;;82.23;43.83;;;-2.30;96.00;;;;;;4847781;28;20654;-78
2021/01/10 04:07:08;;;;;;;78.10;41.77;;;-2.30;96.10;;;;;;4848630;28;20674;-75
2021/01/10 04:09:30;;;;;;;82.63;42.90;;;-2.40;96.10;;;;;;4841852;28;20647;-78
2021/01/10 04:11:52;;;;;;;75.57;39.77;;;-2.20;96.40;;;;;;4843337;28;20742;-76
2021/01/10 04:14:14;;;;;;;83.20;41.73;;;-2.50;96.30;;;;;;4851546;28;20595;-77
2021/01/10 04:16:36;;;;;;;77.50;40.27;;;-2.50;96.50;;;;;;4856614;28;20661;-75
2021/01/10 04:18:59;;;;;;;75.77;40.00;;;-2.50;96.90;;;;;;4845395;28;21265;-75
2021/01/10 04:21:22;;;;;;;82.07;41.70;;;-2.60;97.90;;;;;;4848126;28;21517;-74
2021/01/10 04:23:44;;;;;;;82.27;40.97;;;-2.60;99.10;;;;;;4846917;28;20609;-76
2021/01/10 04:26:06;;;;;;;73.83;39.97;;;-2.60;99.90;;;;;;4827142;28;21256;-76
2021/01/10 04:28:29;;;;;;;77.67;40.70;;;-2.70;99.90;;;;;;4846185;28;20682;-77
2021/01/10 04:30:51;;;;;;;80.00;41.40;;;-2.70;99.90;;;;;;4845938;28;20667;-75
2021/01/10 04:33:13;;;;;;;83.73;43.53;;;-2.70;99.90;;;;;;4845551;28;21166;-76
2021/01/10 04:35:35;;;;;;;79.07;43.33;;;-2.70;99.90;;;;;;4850060;28;20736;-77
2021/01/10 04:37:58;;;;;;;78.53;42.90;;;-2.80;99.90;;;;;;4845864;28;20608;-76
2021/01/10 04:40:21;;;;;;;81.40;42.77;;;-2.60;99.90;;;;;;4844726;28;21182;-76
2021/01/10 04:42:44;;;;;;;83.30;42.00;;;-3.00;99.90;;;;;;4845895;28;21161;-77
2021/01/10 04:45:08;;;;;;;85.77;42.00;;;-2.90;99.90;;;;;;4851686;28;21330;-77
2021/01/10 04:47:30;;;;;;;79.47;39.57;;;-2.90;99.90;;;;;;4845994;28;21181;-77
2021/01/10 04:49:53;;;;;;;77.43;40.60;;;-3.00;99.90;;;;;;4844285;28;20624;-78
2021/01/10 04:52:19;;;;;;;78.37;41.90;;;-2.90;99.90;;;;;;4846739;28;20648;-78
2021/01/10 04:54:45;;;;;;;78.20;40.13;;;-3.00;99.90;;;;;;4827424;28;20629;-77
2021/01/10 04:57:11;;;;;;;73.13;39.07;;;-3.00;99.90;;;;;;4845246;28;20619;-76
2021/01/10 04:59:34;;;;;;;74.37;38.67;;;-3.00;99.90;;;;;;4835912;28;21246;-75
2021/01/10 05:02:00;;;;;;;79.03;43.37;;;-3.10;99.90;;;;;;4852626;28;20691;-77
2021/01/10 05:04:22;;;;;;;72.43;38.97;;;-3.10;99.90;;;;;;4831883;28;20650;-78
2021/01/10 05:06:46;;;;;;;75.50;38.07;;;-3.10;99.90;;;;;;4848431;28;20604;-79
2021/01/10 05:09:08;;;;;;;74.33;39.23;;;-3.10;99.90;;;;;;4844196;28;20928;-77
2021/01/10 05:11:31;;;;;;;73.40;39.27;;;-3.20;99.90;;;;;;4853467;28;20644;-77
2021/01/10 05:13:53;;;;;;;80.10;43.80;;;-3.20;99.90;;;;;;4848817;28;20682;-79
2021/01/10 05:16:19;;;;;;;78.93;40.67;;;-3.10;99.90;;;;;;4850911;28;20604;-76
2021/01/10 05:18:49;;;;;;;77.53;41.17;;;-3.00;99.90;;;;;;4853654;28;20674;-76
2021/01/10 05:21:13;;;;;;;69.07;36.13;;;-3.20;99.90;;;;;;4849849;28;20654;-75
2021/01/10 05:23:38;;;;;;;74.33;38.17;;;-3.20;99.90;;;;;;4847642;28;20669;-75
2021/01/10 05:26:04;;;;;;;70.30;36.97;;;-3.20;99.90;;;;;;4851355;28;20615;-75
2021/01/10 05:28:30;;;;;;;76.80;41.20;;;-3.40;99.90;;;;;;4858100;28;20704;-77
2021/01/10 05:30:52;;;;;;;77.17;40.67;;;-3.50;99.90;;;;;;4850230;28;21026;-78
2021/01/10 05:33:14;;;;;;;83.17;41.23;;;-3.60;99.90;;;;;;4842776;28;20683;-77
2021/01/10 05:35:48;;;;;;;78.10;40.20;;;-3.70;99.90;;;;;;4875197;28;20638;-76
2021/01/10 05:38:23;;;;;;;84.03;43.93;;;-3.70;99.90;;;;;;4855660;28;20622;-77
2021/01/10 05:40:45;;;;;;;83.67;42.87;;;-3.70;99.90;;;;;;4847331;28;20645;-76
2021/01/10 05:43:07;;;;;;;88.17;44.67;;;-3.90;99.90;;;;;;4848796;28;20632;-75
2021/01/10 05:45:38;;;;;;;89.60;46.53;;;-3.90;99.90;;;;;;4832246;28;20749;-75
2021/01/10 05:48:12;;;;;;;90.40;46.43;;;-4.00;99.90;;;;;;4851369;28;20599;-76
2021/01/10 05:50:35;;;;;;;90.20;46.83;;;-4.00;99.90;;;;;;4849406;28;20592;-76
2021/01/10 05:52:58;;;;;;;86.90;42.87;;;-4.10;99.90;;;;;;4847142;28;20658;-76
2021/01/10 05:55:20;;;;;;;82.10;43.33;;;-4.20;99.90;;;;;;4831174;28;21022;-74
2021/01/10 05:57:42;;;;;;;84.00;44.40;;;-4.20;99.90;;;;;;4851090;28;20604;-78
2021/01/10 06:00:05;;;;;;;84.57;44.50;;;-4.30;99.90;;;;;;4844306;28;20624;-76
2021/01/10 06:02:30;;;;;;;91.43;47.63;;;-4.50;99.90;;;;;;4843949;28;20684;-79
2021/01/10 06:05:07;;;;;;;91.23;45.27;;;-4.40;99.90;;;;;;4850838;28;20603;-76
2021/01/10 06:07:32;;;;;;;86.57;44.83;;;-4.40;99.90;;;;;;4848573;28;20584;-81
2021/01/10 06:09:54;;;;;;;93.23;48.37;;;-4.50;99.90;;;;;;4848331;28;20614;-79
2021/01/10 06:12:20;;;;;;;100.47;52.73;;;-4.50;99.90;;;;;;4847974;28;20717;-75
2021/01/10 06:14:43;;;;;;;99.20;52.60;;;-4.50;99.90;;;;;;4844142;28;20635;-75
2021/01/10 06:17:07;;;;;;;101.77;52.33;;;-4.60;99.90;;;;;;4849461;28;20631;-75
2021/01/10 06:19:30;;;;;;;94.57;48.90;;;-4.60;99.90;;;;;;4844557;28;20670;-77
2021/01/10 06:21:55;;;;;;;97.43;46.20;;;-4.60;99.90;;;;;;4851168;28;20605;-74
2021/01/10 06:24:17;;;;;;;93.17;48.90;;;-4.70;99.90;;;;;;4849310;28;20949;-74
2021/01/10 06:26:47;;;;;;;115.80;56.27;;;-4.70;99.90;;;;;;4849295;28;20631;-75
2021/01/10 06:29:14;;;;;;;95.40;49.33;;;-4.70;99.90;;;;;;4840001;28;20624;-75
2021/01/10 06:31:38;;;;;;;102.33;51.13;;;-4.80;99.90;;;;;;4842842;28;20701;-76
2021/01/10 06:34:03;;;;;;;104.90;49.93;;;-4.80;99.90;;;;;;4843948;28;21322;-74
2021/01/10 06:36:29;;;;;;;100.90;50.17;;;-4.80;99.90;;;;;;4870865;28;20643;-76
2021/01/10 06:38:53;;;;;;;95.47;47.33;;;-4.90;99.90;;;;;;4847641;28;20639;-76
2021/01/10 06:41:29;;;;;;;97.47;47.80;;;-4.90;99.90;;;;;;4848806;28;20613;-75
2021/01/10 06:43:59;;;;;;;94.00;45.77;;;-4.90;99.90;;;;;;4844820;28;20588;-76
2021/01/10 06:46:21;;;;;;;91.17;46.33;;;-4.90;99.90;;;;;;4843044;28;20636;-75
2021/01/10 06:48:43;;;;;;;110.83;55.40;;;-4.90;99.90;;;;;;4848996;28;20623;-75
2021/01/10 06:51:06;;;;;;;99.83;49.63;;;-4.90;99.90;;;;;;4853932;28;20651;-75
2021/01/10 06:53:30;;;;;;;99.47;50.27;;;-4.90;99.90;;;;;;4845177;28;20609;-75
2021/01/10 06:55:52;;;;;;;96.03;49.17;;;-5.00;99.90;;;;;;4849842;28;20609;-75
2021/01/10 06:58:14;;;;;;;101.03;52.07;;;-5.00;99.90;;;;;;4849567;28;20662;-77
2021/01/10 07:00:52;;;;;;;153.33;74.07;;;-5.00;99.90;;;;;;4846780;28;20613;-75
2021/01/10 07:03:14;;;;;;;127.00;63.20;;;-5.00;99.90;;;;;;4848221;28;21063;-78
2021/01/10 07:06:08;;;;;;;118.07;60.07;;;-4.90;99.90;;;;;;4846083;28;20596;-78
2021/01/10 07:08:32;;;;;;;126.50;60.77;;;-4.80;99.90;;;;;;4834282;28;20709;-77
2021/01/10 07:10:55;;;;;;;119.87;57.83;;;-4.70;99.90;;;;;;4845264;28;20659;-75
2021/01/10 07:13:28;;;;;;;134.97;67.00;;;-4.60;99.90;;;;;;4840396;28;21283;-76
2021/01/10 07:16:19;;;;;;;122.43;62.07;;;-4.60;99.90;;;;;;4856045;28;20674;-76
2021/01/10 07:18:50;;;;;;;124.03;60.20;;;-4.40;99.90;;;;;;4849727;28;20650;-75
2021/01/10 07:21:29;;;;;;;138.57;66.77;;;-4.20;99.90;;;;;;4843847;28;20662;-77
2021/01/10 07:23:52;;;;;;;149.77;70.07;;;-3.70;99.90;;;;;;4853344;28;20657;-76
2021/01/10 07:26:41;;;;;;;162.13;78.37;;;-2.50;99.90;;;;;;4848522;28;20611;-75
2021/01/10 07:29:03;;;;;;;175.77;82.90;;;-2.30;99.90;;;;;;4842887;28;20593;-74
2021/01/10 07:31:25;;;;;;;208.80;95.00;;;-1.80;99.90;;;;;;4844154;28;21083;-79
2021/01/10 07:34:08;;;;;;;211.30;95.40;;;-1.60;99.90;;;;;;4845512;28;20653;-75
2021/01/10 07:36:45;;;;;;;185.73;81.63;;;-1.30;99.90;;;;;;4829816;28;20993;-74
2021/01/10 07:39:08;;;;;;;193.60;75.20;;;-1.30;83.50;;;;;;4846678;28;20628;-79
2021/01/10 07:41:31;;;;;;;172.73;69.53;;;-1.00;77.70;;;;;;4846727;28;21028;-75
2021/01/10 07:43:56;;;;;;;172.47;70.50;;;-0.60;74.90;;;;;;4846387;28;20620;-81
2021/01/10 07:47:01;;;;;;;175.00;77.47;;;-0.30;63.60;;;;;;4848210;28;20607;-77
2021/01/10 07:49:24;;;;;;;177.43;81.93;;;-0.10;48.40;;;;;;4842058;28;20690;-80
2021/01/10 07:51:47;;;;;;;169.13;78.93;;;0.20;40.20;;;;;;4855480;28;21199;-75
2021/01/10 07:54:10;;;;;;;157.43;75.13;;;0.40;31.20;;;;;;4842518;28;21011;-79
2021/01/10 07:56:32;;;;;;;148.40;77.53;;;0.50;22.90;;;;;;4826315;28;21233;-79
2021/01/10 07:59:13;;;;;;;122.43;67.63;;;0.50;18.10;;;;;;4838380;28;21044;-79
2021/01/10 08:01:48;;;;;;;110.90;60.87;;;0.60;7.60;;;;;;4843556;28;20616;-79
2021/01/10 08:04:10;;;;;;;111.17;58.97;;;0.70;5.30;;;;;;4823312;28;21231;-79
2021/01/10 08:06:57;;;;;;;99.73;57.87;;;0.60;1.00;;;;;;4841714;28;21160;-81
2021/01/10 08:09:22;;;;;;;110.27;63.37;;;0.50;1.00;;;;;;4845599;28;20652;-79
2021/01/10 08:11:53;;;;;;;92.47;54.67;;;0.40;1.00;;;;;;4824034;28;20769;-79
2021/01/10 08:14:16;;;;;;;89.93;50.80;;;0.40;1.00;;;;;;4853610;28;20619;-78
2021/01/10 08:16:38;;;;;;;87.83;49.43;;;0.30;1.00;;;;;;4846360;28;20615;-77
2021/01/10 08:19:06;;;;;;;87.20;48.10;;;0.20;4.10;;;;;;4846337;28;20666;-79
2021/01/10 08:21:28;;;;;;;80.47;45.23;;;0.10;11.30;;;;;;4850288;28;20612;-76
2021/01/10 08:23:54;;;;;;;78.67;46.93;;;-0.10;15.90;;;;;;4844753;28;20685;-75
2021/01/10 08:26:18;;;;;;;80.90;46.77;;;-0.10;22.30;;;;;;4847480;28;20638;-80
2021/01/10 08:28:42;;;;;;;73.60;43.27;;;-0.10;25.00;;;;;;4844354;28;20612;-77
2021/01/10 08:31:06;;;;;;;72.00;38.47;;;-0.10;28.40;;;;;;4845308;28;20669;-78
2021/01/10 08:33:28;;;;;;;70.67;40.30;;;-0.10;29.60;;;;;;4849919;28;21021;-78
2021/01/10 08:35:50;;;;;;;70.63;40.03;;;-0.10;32.70;;;;;;4852066;28;20623;-80
2021/01/10 08:38:13;;;;;;;66.27;38.67;;;-0.10;38.80;;;;;;4849269;28;20669;-77
2021/01/10 08:40:35;;;;;;;66.93;38.23;;;0.00;44.10;;;;;;4847307;28;20612;-76
2021/01/10 08:43:02;;;;;;;64.17;36.73;;;0.10;44.30;;;;;;4840032;28;20580;-80
2021/01/10 08:45:25;;;;;;;58.67;34.97;;;0.10;43.70;;;;;;4842220;28;20608;-76
2021/01/10 08:47:48;;;;;;;60.97;35.97;;;0.20;44.40;;;;;;4841351;28;20608;-74
2021/01/10 08:50:12;;;;;;;57.73;34.80;;;0.30;44.10;;;;;;4835770;28;20288;-75
2021/01/10 08:52:34;;;;;;;62.17;37.53;;;0.40;48.00;;;;;;4857956;28;21135;-75
2021/01/10 08:54:56;;;;;;;73.00;41.33;;;0.50;45.80;;;;;;4857702;28;20619;-80
2021/01/10 08:57:18;;;;;;;68.40;41.53;;;0.60;43.10;;;;;;4839860;28;20562;-78
2021/01/10 08:59:42;;;;;;;68.33;41.03;;;0.70;42.30;;;;;;4849973;28;20620;-76
2021/01/10 09:02:08;;;;;;;71.77;42.60;;;0.70;40.60;;;;;;4841181;28;21081;-79
2021/01/10 09:04:38;;;;;;;78.37;47.53;;;0.80;39.70;;;;;;4839202;28;20229;-76
2021/01/10 09:07:05;;;;;;;83.47;50.10;;;0.90;38.90;;;;;;4840507;28;20210;-75
2021/01/10 09:09:43;;;;;;;78.47;46.40;;;1.00;36.90;;;;;;4843468;28;20210;-77
2021/01/10 09:12:10;;;;;;;77.07;44.17;;;1.10;35.90;;;;;;4848204;28;20630;-76
2021/01/10 09:14:36;;;;;;;75.93;44.13;;;1.30;29.50;;;;;;4831278;28;20215;-74
2021/01/10 09:17:01;;;;;;;72.27;43.10;;;1.40;21.80;;;;;;4847944;28;20620;-76
2021/01/10 09:19:25;;;;;;;68.77;43.30;;;1.50;13.80;;;;;;4851274;28;20212;-76
2021/01/10 09:21:48;;;;;;;75.67;44.57;;;1.70;14.90;;;;;;4858320;28;20185;-74
2021/01/10 09:24:11;;;;;;;70.00;42.47;;;1.90;11.00;;;;;;4854313;28;20208;-76
2021/01/10 09:26:35;;;;;;;55.33;34.97;;;2.00;8.10;;;;;;4831734;28;20198;-77
2021/01/10 09:28:59;;;;;;;48.53;30.63;;;2.20;1.00;;;;;;4839121;28;20190;-76
2021/01/10 09:31:36;;;;;;;40.57;25.07;;;2.70;1.00;;;;;;4851456;28;20804;-74
2021/01/10 09:34:01;;;;;;;31.00;20.07;;;2.60;1.00;;;;;;4857719;28;20186;-75
2021/01/10 09:36:23;;;;;;;29.70;19.57;;;3.00;1.00;;;;;;4856403;28;20201;-76
2021/01/10 09:38:55;;;;;;;30.03;19.57;;;3.30;1.00;;;;;;4848800;28;20714;-75
2021/01/10 09:41:17;;;;;;;30.17;18.70;;;3.80;1.00;;;;;;4852066;28;20198;-72
2021/01/10 09:43:41;;;;;;;27.63;19.13;;;4.80;1.00;;;;;;4843453;28;20241;-77
2021/01/10 09:46:07;;;;;;;25.00;17.60;;;6.00;1.00;;;;;;4840143;28;20230;-79
2021/01/10 09:48:30;;;;;;;23.83;16.27;;;7.50;99.90;;;;;;4838725;28;20265;-75
2021/01/10 09:50:53;;;;;;;21.53;16.03;;;8.70;6.20;;;;;;4828563;28;20186;-74
2021/01/10 09:53:25;;;;;;;18.47;14.37;;;9.70;1.00;;;;;;4855906;28;20221;-74
2021/01/10 09:55:47;;;;;;;22.70;16.00;;;11.00;1.00;;;;;;4857638;28;20186;-74
2021/01/10 09:58:15;;;;;;;14.63;11.93;;;13.10;1.00;;;;;;4857827;28;20186;-78
2021/01/10 10:00:37;;;;;;;13.00;11.20;;;13.20;1.00;;;;;;4855439;28;20240;-75
2021/01/10 10:03:09;;;;;;;11.53;10.33;;;14.00;1.00;;;;;;4853353;28;20260;-76
2021/01/10 10:05:32;;;;;;;11.70;10.47;;;14.80;1.00;;;;;;4847220;28;20236;-72
2021/01/10 10:08:02;;;;;;;9.13;8.03;;;15.20;1.00;;;;;;4850458;28;20199;-73
2021/01/10 10:10:26;;;;;;;9.67;8.70;;;15.10;1.00;;;;;;4849228;28;20770;-71
2021/01/10 10:12:57;;;;;;;10.20;8.83;;;13.30;1.00;;;;;;4821725;28;20237;-71
2021/01/10 10:15:21;;;;;;;10.17;9.00;;;13.10;1.00;;;;;;4849614;28;20649;-72
2021/01/10 10:17:43;;;;;;;10.40;9.23;;;12.00;1.00;;;;;;4839130;28;20256;-72
2021/01/10 10:20:08;;;;;;;11.77;9.67;;;10.90;1.00;;;;;;4844538;28;20206;-72
2021/01/10 10:22:32;;;;;;;12.57;10.57;;;10.00;1.00;;;;;;4837961;28;20595;-71
2021/01/10 10:24:56;;;;;;;13.33;11.47;;;9.10;1.00;;;;;;4842052;28;20187;-70
2021/01/10 10:27:19;;;;;;;12.63;10.83;;;8.40;1.00;;;;;;4855400;28;20190;-72
2021/01/10 10:29:41;;;;;;;13.53;11.43;;;7.80;1.00;;;;;;4839482;28;20211;-72
2021/01/10 10:32:04;;;;;;;13.23;11.63;;;7.30;1.00;;;;;;4855189;28;20207;-74
2021/01/10 10:34:26;;;;;;;14.37;11.70;;;6.40;1.00;;;;;;4858558;28;20182;-71
2021/01/10 10:36:48;;;;;;;16.83;12.20;;;6.30;1.00;;;;;;4850514;28;20500;-75
2021/01/10 10:39:11;;;;;;;16.43;11.27;;;6.00;1.00;;;;;;4823560;28;20649;-73
2021/01/10 10:41:34;;;;;;;15.70;11.87;;;5.70;1.00;;;;;;4858459;28;20746;-75
2021/01/10 10:43:57;;;;;;;16.50;12.73;;;5.40;1.00;;;;;;4847100;28;20195;-73
2021/01/10 10:46:19;;;;;;;16.60;12.43;;;5.20;1.00;;;;;;4856667;28;20229;-74
2021/01/10 10:48:42;;;;;;;18.73;14.30;;;5.10;1.00;;;;;;4855933;28;20801;-73
2021/01/10 10:51:06;;;;;;;18.80;14.53;;;4.90;1.00;;;;;;4843631;28;20202;-74
2021/01/10 10:53:28;;;;;;;13.93;11.33;;;4.90;1.00;;;;;;4837414;28;20261;-72
2021/01/10 10:55:51;;;;;;;16.93;13.47;;;4.90;1.00;;;;;;4854861;28;20734;-73
2021/01/10 10:58:14;;;;;;;17.57;12.60;;;4.90;1.00;;;;;;4842734;28;20679;-76
2021/01/10 11:00:36;;;;;;;16.43;12.73;;;4.80;1.00;;;;;;4847003;28;20739;-75
2021/01/10 11:03:00;;;;;;;17.90;12.80;;;4.80;1.00;;;;;;4844156;28;20202;-74
2021/01/10 11:05:25;;;;;;;18.07;13.07;;;4.80;1.00;;;;;;4839656;28;20245;-76
2021/01/10 11:07:47;;;;;;;16.27;11.97;;;5.00;1.00;;;;;;4838186;28;20210;-74
2021/01/10 11:10:10;;;;;;;17.67;12.17;;;5.10;1.00;;;;;;4839670;28;20187;-75
2021/01/10 11:12:33;;;;;;;22.30;14.07;;;5.40;1.00;;;;;;4852591;28;20657;-73
2021/01/10 11:14:56;;;;;;;17.23;12.97;;;5.70;1.00;;;;;;4830052;28;20300;-75
2021/01/10 11:17:18;;;;;;;17.80;12.77;;;6.00;1.00;;;;;;4848342;28;20186;-76
2021/01/10 11:19:41;;;;;;;18.73;13.67;;;6.10;1.00;;;;;;4838210;28;20919;-75
2021/01/10 11:22:04;;;;;;;16.17;11.40;;;6.00;1.00;;;;;;4821229;28;20724;-75
2021/01/10 11:24:28;;;;;;;17.23;12.60;;;5.90;1.00;;;;;;4837553;28;20815;-76
2021/01/10 11:26:50;;;;;;;16.37;11.53;;;5.90;1.00;;;;;;4837621;28;20191;-77
2021/01/10 11:29:14;;;;;;;11.20;8.20;;;5.70;1.00;;;;;;4837565;28;20206;-73
2021/01/10 11:31:39;;;;;;;10.73;7.90;;;5.60;1.00;;;;;;4839123;28;20183;-75
2021/01/10 11:34:01;;;;;;;12.17;8.63;;;5.50;1.00;;;;;;4838516;28;20222;-76
2021/01/10 11:36:23;;;;;;;11.43;7.80;;;5.40;1.00;;;;;;4844046;28;20236;-74
2021/01/10 11:38:48;;;;;;;10.47;7.53;;;5.40;1.00;;;;;;4858040;28;20252;-78
2021/01/10 11:41:11;;;;;;;10.97;7.83;;;5.40;1.00;;;;;;4857594;28;20190;-77
2021/01/10 11:43:34;;;;;;;12.40;9.37;;;5.40;1.00;;;;;;4850733;28;20191;-75
2021/01/10 11:45:56;;;;;;;11.60;8.40;;;5.40;1.00;;;;;;4838598;28;20548;-76
2021/01/10 11:48:19;;;;;;;8.10;6.93;;;5.40;1.00;;;;;;4841375;28;20195;-74
2021/01/10 11:50:41;;;;;;;9.97;7.37;;;5.50;1.00;;;;;;4837271;28;20277;-75
2021/01/10 11:53:03;;;;;;;11.43;8.20;;;5.90;1.00;;;;;;4837963;28;20345;-75
2021/01/10 11:55:25;;;;;;;12.53;9.07;;;5.90;1.00;;;;;;4837987;28;20240;-75
2021/01/10 11:57:47;;;;;;;18.67;13.70;;;6.50;1.00;;;;;;4836573;28;20187;-76
2021/01/10 12:00:11;;;;;;;11.23;9.00;;;7.80;1.00;;;;;;4840299;28;20653;-78
2021/01/10 12:02:33;;;;;;;10.17;8.20;;;8.90;1.00;;;;;;4855136;28;20190;-76
2021/01/10 12:04:56;;;;;;;8.80;6.80;;;9.10;1.00;;;;;;4825269;28;20203;-77
2021/01/10 12:07:18;;;;;;;6.27;5.27;;;10.10;1.00;;;;;;4835984;28;20245;-77
2021/01/10 12:09:41;;;;;;;6.60;4.53;;;11.70;1.00;;;;;;4837853;28;20719;-75
2021/01/10 12:12:03;;;;;;;4.07;3.37;;;13.10;1.00;;;;;;4847002;28;20217;-79
2021/01/10 12:14:26;;;;;;;2.67;2.43;;;14.70;1.00;;;;;;4855130;28;20259;-77
2021/01/10 12:16:48;;;;;;;2.20;2.00;;;16.30;1.00;;;;;;4855226;28;20581;-76
2021/01/10 12:19:10;;;;;;;1.30;1.27;;;17.80;1.00;;;;;;4856330;28;20236;-76
2021/01/10 12:21:33;;;;;;;0.60;0.60;;;19.20;1.00;;;;;;4847672;28;20207;-72